• Join FlightAware (Why Join?)
  • Login
  • US Flag 
04:51PM EST


 

Airport Tracker/Info


-or-


 

Live Flight TrackerFlight Track Log ✈ EJA951 ✈ 12-Nov-2013 ✈ KVNY - KSDL

Flight Track Log - Related Links

Times and Time Zones

All times are in EST time to prevent confusion due to time zone crossing. See the EJA951 flight status page for this flight to view local times or setup timezone preferences in your user account.

Time Position Orientation Groundspeed Altitude Reporting Facility
EST Latitude Longitude Course Direction KTS MPH feet Rate Location/Type
11:12AM 34.1569 -118.4444 357° North 204 235 4,700  Level Los Angeles Center
11:13AM 34.2086 -118.4481 357° North 224 258 8,700 3,840 Climbing Los Angeles Center
11:14AM 34.2758 -118.4700 345° North 273 314 12,600 3,000 Climbing Los Angeles Center
11:15AM 34.3678 -118.4056 30° Northeast 324 373 15,000 1,980 Climbing Los Angeles Center
11:16AM 34.4536 -118.3392 33° Northeast 362 417 16,700 1,380 Climbing Los Angeles Center
11:17AM 34.5242 -118.2367 50° Northeast 393 452 17,900 1,200 Climbing Los Angeles Center
11:18AM 34.5839 -118.1392 53° Northeast 398 458 19,300 1,500 Climbing Los Angeles Center
11:19AM 34.6086 -117.9861 79° East 400 460 21,100 1,500 Climbing Los Angeles Center
11:20AM 34.5697 -117.8583 110° East 408 470 22,500 1,140 Climbing Los Angeles Center
11:21AM 34.5308 -117.7283 110° East 413 475 23,500 960 Climbing Los Angeles Center
11:22AM 34.4894 -117.5956 111° Southeast 421 484 24,500 960 Climbing Los Angeles Center
11:23AM 34.4469 -117.4572 110° East 434 499 25,500 1,020 Climbing Los Angeles Center
11:24AM 34.3964 -117.2867 110° East 449 517 26,700 720 Climbing Los Angeles Center
11:25AM 34.3517 -117.1411 110° East 459 528 27,000 120 Climbing Los Angeles Center
11:26AM 34.3050 -116.9886 110° East 477 549 27,000  Level Los Angeles Center
11:27AM 34.2578 -116.8361 111° Southeast 485 558 27,000  Level Los Angeles Center
11:28AM 34.2244 -116.6764 104° East 504 580 27,000  Level Los Angeles Center
11:29AM 34.2200 -116.5064 92° East 510 587 27,000  Level Los Angeles Center
11:30AM 34.1625 -116.3083 109° East 527 606 27,000  Level Los Angeles Center
11:31AM 34.1069 -116.1433 112° Southeast 529 609 27,000  Level Los Angeles Center
11:32AM 34.0478 -115.9800 114° Southeast 533 613 27,000  Level Los Angeles Center
11:33AM 33.9864 -115.8194 115° Southeast 531 611 27,000  Level Los Angeles Center
11:34AM 33.9264 -115.6564 114° Southeast 533 613 27,000  Level Los Angeles Center
11:35AM 33.8608 -115.4664 113° Southeast 535 616 27,000  Level Los Angeles Center
11:36AM 33.8122 -115.2989 109° East 531 611 27,000  Level Los Angeles Center
11:37AM 33.7667 -115.1297 108° East 532 612 27,000  Level Los Angeles Center
11:38AM 33.7189 -114.9611 109° East 532 612 27,000  Level Los Angeles Center
11:39AM 33.6717 -114.7942 109° East 530 610 27,000  Level Los Angeles Center
11:40AM 33.6131 -114.5933 109° East 532 612 27,000  Level Los Angeles Center
11:42AM 33.5644 -114.4258 109° East 533 613 27,000  Level Los Angeles Center
11:43AM 33.5158 -114.2583 109° East 532 612 27,000 -900 Level Los Angeles Center
11:44AM 33.4669 -114.0903 109° East 535 616 25,200 -1,500 Descending Los Angeles Center
11:45AM 33.4336 -113.9294 104° East 499 574 24,000 -1,140 Descending Los Angeles Center
11:46AM 33.4017 -113.7736 104° East 485 558 22,900 -1,680 Descending Los Angeles Center
11:47AM 33.3658 -113.5919 103° East 471 542 20,600 -1,980 Descending Los Angeles Center
11:48AM 33.3753 -113.4544 85° East 424 488 18,900 -1,440 Descending Los Angeles Center
11:49AM 33.4308 -113.3272 62° Northeast 428 493 17,700 -1,920 Descending Los Angeles Center
11:50AM 33.4883 -113.2083 60° Northeast 418 481 15,000 -2,520 Descending Los Angeles Center
11:51AM 33.5594 -113.0483 62° Northeast 389 448 11,800 -1,680 Descending Albuquerque Center
11:52AM 33.6089 -112.9203 65° Northeast 373 429 11,000 -540 Descending Albuquerque Center
11:53AM 33.6336 -112.8367 70° East 333 383 10,700 -600 Descending Albuquerque Center
11:53AM 33.6394 -112.8261 56° Northeast 292 336 10,400 -1,980 Descending Albuquerque Center
11:54AM 33.6731 -112.7478 63° Northeast 302 348 8,700 -1,980 Descending Albuquerque Center
11:54AM 33.6806 -112.7317 61° Northeast 288 331 8,400 -1,560 Descending Albuquerque Center
11:55AM 33.7097 -112.6661 62° Northeast 283 326 7,100 -1,440 Descending Albuquerque Center
11:55AM 33.7156 -112.6514 65° Northeast 271 312 7,000 -120 Descending Albuquerque Center
11:56AM 33.7442 -112.5889 61° Northeast 267 307 7,000 -480 Level Albuquerque Center
11:57AM 33.7722 -112.4925 71° East 260 299 6,100 -540 Descending Albuquerque Center
11:58AM 33.7714 -112.4064 91° East 259 298 6,000 -60 Descending Albuquerque Center
11:59AM 33.7697 -112.3228 91° East 253 291 6,000 -60 Level Albuquerque Center
12:00PM 33.7689 -112.2439 91° East 239 275 5,900 -60 Descending Albuquerque Center
12:01PM 33.7686 -112.1697 90° East 226 260 5,900 -60 Level Albuquerque Center
12:03PM 33.7553 -112.0811 100° East 225 259 5,800 -540 Descending Albuquerque Center
12:04PM 33.7444 -112.0181 102° East 200 230 4,900 -780 Descending Albuquerque Center
12:05PM 33.7239 -111.9594 113° Southeast 200 230 4,300 -840 Descending Albuquerque Center
12:06PM 33.6914 -111.9097 128° Southeast 193 222 3,200 -720 Descending Albuquerque Center
12:07PM 33.6669 -111.8639 123° Southeast 178 205 2,900 -660 Descending Albuquerque Center
12:08PM 33.6331 -111.8997 221° Southwest 154 177 1,900 -1,020 Descending Albuquerque Center